OITP

Parsabad-Moghan Airport

Airport
ICAO code
OITP
IATA Code
PFQ
Summary
ICAO Region
MID
ICAO Territory
Location

Parsabad, Ardabil Province

Serving
Parsabad
Elevation
253 ft
Coordinates
39° 36' 26" N , 47° 52' 37" E
KCC
Metar
Observation
OITP 070300Z 00000KT 9999 BKN020 OVC070 02/01 Q1028
Station
Parsabad-Moghan Airport
Date/Time
2022-12-07 03:00:00
Wind direction
Wind speed
00 kts
Lowest cloud amount
broken clouds
Temperature
2°C
Dew point
1°C
Humidity
93%
QNH
1028 hPa
Weather condition
n/a

Airport serving Parsabad in northern Iran close to the border with Azerbaijan.

Climatology

Temperate semi-arid climate (Köppen climate classification BSk).

Runways

Designator Length Width Surface Rops
11/29 2595 35 ASP No/No

Airport map

Aerial View

SKYbrary Partners:

Safety knowledge contributed by: